Time;durP1;ratioP1;P1;durP2;ratioP2;P2;SDS_P1;SDS_P2;PMS_P1;PMS_P2;Temp;Humidity;BMP_temperature;BMP_pressure;BME280_temperature;BME280_humidity;BME280_pressure;Samples;Min_cycle;Max_cycle;Signal;HPM_P1;HPM_P2
2024/01/06 07:04:53;;;;;;;;;;;;;;;;;;13089052;22;2040092;-85
2024/01/06 07:16:02;;;;;;;6.43;3.30;;;;;;;;;;13085386;22;20014;-83
2024/01/06 07:21:06;;;;;;;8.05;5.10;;;;;;;;;;13095364;22;20025;-84
2024/01/06 07:26:08;;;;;;;7.25;3.90;;;;;;;;;;13096622;22;20011;-83
2024/01/06 07:31:09;;;;;;;8.50;6.93;;;;;;;;;;13078225;22;20011;-81
2024/01/06 07:36:10;;;;;;;;;;;;;;;;;;13080362;22;20458;-81
2024/01/06 07:41:11;;;;;;;6.40;4.32;;;;;;;;;;13078859;22;20205;-81
2024/01/06 07:46:12;;;;;;;10.38;7.43;;;;;;;;;;13079622;22;20011;-81
2024/01/06 07:51:13;;;;;;;;;;;;;;;;;;13077327;22;20041;-82
2024/01/06 07:56:15;;;;;;;6.28;4.95;;;;;;;;;;13066643;22;19899;-82
2024/01/06 08:01:17;;;;;;;;;;;;;;;;;;13065736;22;20467;-80
2024/01/06 08:06:19;;;;;;;4.78;2.33;;;;;;;;;;13069694;22;19938;-86
2024/01/06 08:11:21;;;;;;;6.00;4.20;;;;;;;;;;13061754;22;20007;-85
2024/01/06 08:16:21;;;;;;;;;;;;;;;;;;13063159;22;20083;-84
2024/01/06 08:21:23;;;;;;;11.25;4.95;;;;;;;;;;13062349;22;19977;-82
2024/01/06 08:26:24;;;;;;;7.55;6.13;;;;;;;;;;13072357;22;20004;-79
2024/01/06 08:31:24;;;;;;;;;;;;;;;;;;13072255;22;20015;-79
2024/01/06 08:36:26;;;;;;;6.80;4.85;;;;;;;;;;13071829;22;19914;-80
2024/01/06 08:41:27;;;;;;;;;;;;;;;;;;13069693;22;20026;-80
2024/01/06 08:46:28;;;;;;;5.25;3.45;;;;;;;;;;13071805;22;19972;-80
2024/01/06 08:51:30;;;;;;;;;;;;;;;;;;13066913;22;20003;-80
2024/01/06 08:56:31;;;;;;;5.22;4.18;;;;;;;;;;13064605;22;19922;-80
2024/01/06 09:01:35;;;;;;;;;;;;;;;;;;13067226;22;20031;-80
2024/01/06 09:06:36;;;;;;;2.50;2.05;;;;;;;;;;13067435;22;19933;-80
2024/01/06 09:11:37;;;;;;;5.15;3.45;;;;;;;;;;13071124;22;20014;-80
2024/01/06 09:16:38;;;;;;;;;;;;;;;;;;13066855;22;19999;-79
2024/01/06 09:21:39;;;;;;;2.92;2.45;;;;;;;;;;13066253;22;19978;-79
2024/01/06 09:26:40;;;;;;;3.90;2.20;;;;;;;;;;13067482;22;20004;-82
2024/01/06 09:31:41;;;;;;;;;;;;;;;;;;13062506;22;20003;-80
2024/01/06 09:36:43;;;;;;;4.15;2.33;;;;;;;;;;13065905;22;19938;-80
2024/01/06 09:41:44;;;;;;;3.58;2.28;;;;;;;;;;13065765;22;20003;-81
2024/01/06 09:46:46;;;;;;;5.18;3.33;;;;;;;;;;13068704;22;20445;-80
2024/01/06 09:51:51;;;;;;;3.58;2.60;;;;;;;;;;13063515;22;20437;-80
2024/01/06 09:56:52;;;;;;;3.80;2.90;;;;;;;;;;13064796;22;19999;-79
2024/01/06 10:01:53;;;;;;;3.78;2.90;;;;;;;;;;13064509;22;20007;-80
2024/01/06 10:06:55;;;;;;;3.83;2.90;;;;;;;;;;13065871;22;20019;-80
2024/01/06 10:11:59;;;;;;;3.28;1.98;;;;;;;;;;13066432;22;20004;-81
2024/01/06 10:17:00;;;;;;;4.00;2.60;;;;;;;;;;13065582;22;19995;-81
2024/01/06 10:22:02;;;;;;;5.65;4.20;;;;;;;;;;13065895;22;20066;-81
2024/01/06 10:27:04;;;;;;;3.70;3.30;;;;;;;;;;13063512;22;20007;-81
2024/01/06 10:32:05;;;;;;;5.03;2.92;;;;;;;;;;13064771;22;20030;-81
2024/01/06 10:37:07;;;;;;;4.03;3.10;;;;;;;;;;13067998;22;20007;-81
2024/01/06 10:42:09;;;;;;;6.28;3.90;;;;;;;;;;13082247;22;20003;-81
2024/01/06 10:47:11;;;;;;;3.85;2.90;;;;;;;;;;13068138;22;20110;-81
2024/01/06 10:52:12;;;;;;;11.48;9.55;;;;;;;;;;13060754;22;20094;-80
2024/01/06 10:57:13;;;;;;;6.07;4.75;;;;;;;;;;13060225;22;20027;-81
2024/01/06 11:02:16;;;;;;;;;;;;;;;;;;13063340;22;19999;-83
2024/01/06 11:07:18;;;;;;;4.72;3.50;;;;;;;;;;13062202;22;19906;-81
2024/01/06 11:12:19;;;;;;;4.20;2.80;;;;;;;;;;13074434;22;20018;-81
2024/01/06 11:17:39;;;;;;;5.28;4.05;;;;;;;;;;13064148;22;20050;-81
2024/01/06 11:22:41;;;;;;;5.80;4.55;;;;;;;;;;13066323;22;20439;-80
2024/01/06 11:27:45;;;;;;;5.65;4.30;;;;;;;;;;13066608;22;20010;-81
2024/01/06 11:32:46;;;;;;;8.98;7.35;;;;;;;;;;13066636;22;20090;-82
2024/01/06 11:37:47;;;;;;;4.38;3.60;;;;;;;;;;13067607;22;20045;-80
2024/01/06 11:42:49;;;;;;;6.25;4.78;;;;;;;;;;13067815;22;20069;-84
2024/01/06 11:47:54;;;;;;;8.32;6.82;;;;;;;;;;13069452;22;20018;-80
2024/01/06 11:52:55;;;;;;;7.20;6.00;;;;;;;;;;13080076;22;20051;-81
2024/01/06 11:57:57;;;;;;;10.35;7.95;;;;;;;;;;13087807;22;20015;-80
2024/01/06 12:02:59;;;;;;;5.07;4.57;;;;;;;;;;13083826;22;20029;-79
2024/01/06 12:08:01;;;;;;;6.25;4.57;;;;;;;;;;13074182;22;20007;-79
2024/01/06 12:13:02;;;;;;;7.25;5.68;;;;;;;;;;13065956;22;20063;-78
2024/01/06 12:18:04;;;;;;;6.07;4.38;;;;;;;;;;13062731;22;20003;-79
2024/01/06 12:23:05;;;;;;;8.38;6.07;;;;;;;;;;13070917;22;20034;-79
2024/01/06 12:28:07;;;;;;;3.55;2.53;;;;;;;;;;13065922;22;20439;-79
2024/01/06 12:33:08;;;;;;;3.70;2.90;;;;;;;;;;13078709;22;19999;-79
2024/01/06 12:38:09;;;;;;;6.57;4.72;;;;;;;;;;13066647;22;19999;-79
2024/01/06 12:43:11;;;;;;;5.63;3.60;;;;;;;;;;13065785;22;20010;-82
2024/01/06 12:48:12;;;;;;;;;;;;;;;;;;13064265;22;20004;-84
2024/01/06 12:53:17;;;;;;;6.07;4.70;;;;;;;;;;13063080;22;19903;-85
2024/01/06 12:58:18;;;;;;;5.88;4.00;;;;;;;;;;13075998;22;20000;-85
2024/01/06 13:03:19;;;;;;;;;;;;;;;;;;13103858;22;20006;-81
2024/01/06 13:08:21;;;;;;;5.68;4.30;;;;;;;;;;12999891;22;19931;-81
2024/01/06 13:13:22;;;;;;;5.93;4.55;;;;;;;;;;12998055;22;20094;-81
2024/01/06 13:18:22;;;;;;;;;;;;;;;;;;12999957;22;19999;-81
2024/01/06 13:23:24;;;;;;;7.85;6.22;;;;;;;;;;13000259;22;19946;-82
2024/01/06 13:28:25;;;;;;;;;;;;;;;;;;12998293;22;20023;-82
2024/01/06 13:33:26;;;;;;;5.00;3.75;;;;;;;;;;12999262;22;19991;-82
2024/01/06 13:38:27;;;;;;;7.00;5.75;;;;;;;;;;13010649;22;20006;-81
2024/01/06 13:43:28;;;;;;;3.95;2.72;;;;;;;;;;13024567;22;20022;-81
2024/01/06 13:48:29;;;;;;;3.88;2.90;;;;;;;;;;13006911;22;20018;-81
2024/01/06 13:53:31;;;;;;;6.35;4.75;;;;;;;;;;13001116;22;20014;-84
2024/01/06 13:58:35;;;;;;;3.63;2.70;;;;;;;;;;13000286;22;20007;-82
2024/01/06 14:03:36;;;;;;;4.97;3.10;;;;;;;;;;12996081;22;20019;-82
2024/01/06 14:08:37;;;;;;;5.88;4.25;;;;;;;;;;12998330;22;20011;-82
2024/01/06 14:13:38;;;;;;;;;;;;;;;;;;12997005;22;20004;-82
2024/01/06 14:18:39;;;;;;;5.28;3.40;;;;;;;;;;12996372;22;19956;-82
2024/01/06 14:23:40;;;;;;;9.63;6.95;;;;;;;;;;12994307;22;20019;-82
2024/01/06 14:28:41;;;;;;;5.45;3.88;;;;;;;;;;12996699;22;20372;-81
2024/01/06 14:33:42;;;;;;;4.20;3.20;;;;;;;;;;12995193;22;20035;-81
2024/01/06 14:38:43;;;;;;;10.68;8.20;;;;;;;;;;12994137;22;20000;-81
2024/01/06 14:43:44;;;;;;;3.05;2.42;;;;;;;;;;12994505;22;20004;-81
2024/01/06 14:48:45;;;;;;;4.25;3.25;;;;;;;;;;12997063;22;20449;-80
2024/01/06 14:53:46;;;;;;;;;;;;;;;;;;12997061;22;20000;-81
2024/01/06 14:58:47;;;;;;;4.03;3.40;;;;;;;;;;12994600;22;20336;-82
2024/01/06 15:03:48;;;;;;;;;;;;;;;;;;12999746;22;20376;-81
2024/01/06 15:08:49;;;;;;;3.83;3.13;;;;;;;;;;13000027;22;19955;-82
2024/01/06 15:13:50;;;;;;;;;;;;;;;;;;13002209;22;20020;-81
2024/01/06 15:18:51;;;;;;;3.50;2.60;;;;;;;;;;13000361;22;19934;-81
2024/01/06 15:23:54;;;;;;;3.55;2.85;;;;;;;;;;13000447;22;20007;-80
2024/01/06 15:28:56;;;;;;;4.38;3.63;;;;;;;;;;12998745;22;20035;-80
2024/01/06 15:33:57;;;;;;;5.40;3.75;;;;;;;;;;13002269;22;20074;-82
2024/01/06 15:38:58;;;;;;;3.47;2.50;;;;;;;;;;13025881;22;19988;-81
2024/01/06 15:44:00;;;;;;;3.38;2.75;;;;;;;;;;13036580;22;20083;-80
2024/01/06 15:49:01;;;;;;;4.47;3.78;;;;;;;;;;13023937;22;20004;-81
2024/01/06 15:54:02;;;;;;;;;;;;;;;;;;13015044;22;20015;-80
2024/01/06 15:59:03;;;;;;;4.45;3.60;;;;;;;;;;13013087;22;19938;-80
2024/01/06 16:04:04;;;;;;;;;;;;;;;;;;13008477;22;20074;-79
2024/01/06 16:09:05;;;;;;;2.45;2.10;;;;;;;;;;13013302;22;19958;-81
2024/01/06 16:14:07;;;;;;;2.78;2.20;;;;;;;;;;13015443;22;20018;-82
2024/01/06 16:19:08;;;;;;;3.22;2.67;;;;;;;;;;12998280;22;19995;-82
2024/01/06 16:24:09;;;;;;;4.68;3.80;;;;;;;;;;12999124;22;20134;-80
2024/01/06 16:29:10;;;;;;;5.88;4.50;;;;;;;;;;13007733;22;20027;-81
2024/01/06 16:34:12;;;;;;;3.13;2.33;;;;;;;;;;13009938;22;20035;-81
2024/01/06 16:39:13;;;;;;;4.43;3.75;;;;;;;;;;13008780;22;20469;-80
2024/01/06 16:44:14;;;;;;;2.28;1.95;;;;;;;;;;13006240;22;20008;-82
2024/01/06 16:49:15;;;;;;;;;;;;;;;;;;12999141;22;20007;-80
2024/01/06 16:54:16;;;;;;;5.97;5.22;;;;;;;;;;12994481;22;19978;-81
2024/01/06 16:59:18;;;;;;;4.80;4.10;;;;;;;;;;12995218;22;20437;-81
2024/01/06 17:04:19;;;;;;;;;;;;;;;;;;12995062;22;20066;-81
2024/01/06 17:09:20;;;;;;;2.08;1.88;;;;;;;;;;12993098;22;20406;-81
2024/01/06 17:14:21;;;;;;;3.42;2.80;;;;;;;;;;12994580;22;20063;-81
2024/01/06 17:19:22;;;;;;;4.80;3.88;;;;;;;;;;13000762;22;20019;-81
2024/01/06 17:24:23;;;;;;;2.78;2.25;;;;;;;;;;12994946;22;20035;-81
2024/01/06 17:29:24;;;;;;;3.10;2.40;;;;;;;;;;13013946;22;20004;-81
2024/01/06 17:34:25;;;;;;;;;;;;;;;;;;13003480;22;20011;-81
2024/01/06 17:39:26;;;;;;;4.10;3.55;;;;;;;;;;12994998;22;19903;-81
2024/01/06 17:44:29;;;;;;;6.80;5.97;;;;;;;;;;12994903;22;20003;-80
2024/01/06 17:49:30;;;;;;;4.07;3.30;;;;;;;;;;12996152;22;20004;-81
2024/01/06 17:54:31;;;;;;;3.03;2.35;;;;;;;;;;12996117;22;20004;-82
2024/01/06 17:59:32;;;;;;;4.03;3.30;;;;;;;;;;12995394;22;20387;-82
2024/01/06 18:04:33;;;;;;;4.32;3.55;;;;;;;;;;12994534;22;20011;-82
2024/01/06 18:09:34;;;;;;;7.15;5.35;;;;;;;;;;13000591;22;20000;-80
2024/01/06 18:14:36;;;;;;;4.03;3.10;;;;;;;;;;13006980;22;20030;-82
2024/01/06 18:19:37;;;;;;;3.28;2.67;;;;;;;;;;12999323;22;19999;-81
2024/01/06 18:24:40;;;;;;;4.57;3.60;;;;;;;;;;12995911;22;20426;-81
2024/01/06 18:29:41;;;;;;;2.63;2.30;;;;;;;;;;12997314;22;20043;-82
2024/01/06 18:34:45;;;;;;;4.50;3.83;;;;;;;;;;12995091;22;20008;-82
2024/01/06 18:39:46;;;;;;;7.38;5.82;;;;;;;;;;12994234;22;20007;-80
2024/01/06 18:44:47;;;;;;;6.03;4.60;;;;;;;;;;12994445;22;19999;-82
2024/01/06 18:49:48;;;;;;;6.75;5.78;;;;;;;;;;12994488;22;20337;-82
2024/01/06 18:54:49;;;;;;;;;;;;;;;;;;12994600;22;20311;-82
2024/01/06 18:59:50;;;;;;;4.68;3.70;;;;;;;;;;12994058;22;19899;-82
2024/01/06 19:04:51;;;;;;;6.22;5.63;;;;;;;;;;12996691;22;20349;-81
2024/01/06 19:09:52;;;;;;;4.85;3.70;;;;;;;;;;12996393;22;20006;-81
2024/01/06 19:14:53;;;;;;;;;;;;;;;;;;12995472;22;20330;-81
2024/01/06 19:19:54;;;;;;;4.70;4.00;;;;;;;;;;12994510;22;19899;-81
2024/01/06 19:24:56;;;;;;;;;;;;;;;;;;12994590;22;20421;-82
2024/01/06 19:29:57;;;;;;;5.55;4.35;;;;;;;;;;12993745;22;19949;-81
2024/01/06 19:34:58;;;;;;;5.97;4.50;;;;;;;;;;12992110;22;20007;-81
2024/01/06 19:39:59;;;;;;;;;;;;;;;;;;12993830;22;20337;-81
2024/01/06 19:45:00;;;;;;;9.55;7.72;;;;;;;;;;12993356;22;19943;-81
2024/01/06 19:50:03;;;;;;;6.38;5.63;;;;;;;;;;12993238;22;20318;-81
2024/01/06 19:55:04;;;;;;;5.72;4.78;;;;;;;;;;12995368;22;20000;-81
2024/01/06 20:00:05;;;;;;;;;;;;;;;;;;12996246;22;20039;-81
2024/01/06 20:05:06;;;;;;;4.28;3.55;;;;;;;;;;12996189;22;19911;-81
